sensor_id;sensor_type;location;lat;lon;timestamp;temperature;humidity
15969;DHT22;8085;53.472;9.794;2023-06-14T00:00:07;16.10;1.00
15969;DHT22;8085;53.472;9.794;2023-06-14T00:02:36;16.10;1.00
15969;DHT22;8085;53.472;9.794;2023-06-14T00:05:04;16.10;1.00
15969;DHT22;8085;53.472;9.794;2023-06-14T00:07:35;16.10;1.00
15969;DHT22;8085;53.472;9.794;2023-06-14T00:10:03;16.00;1.00
15969;DHT22;8085;53.472;9.794;2023-06-14T00:12:30;15.90;1.00
15969;DHT22;8085;53.472;9.794;2023-06-14T00:14:58;15.90;1.00
15969;DHT22;8085;53.472;9.794;2023-06-14T00:17:27;15.90;1.00
15969;DHT22;8085;53.472;9.794;2023-06-14T00:19:57;15.90;1.00
15969;DHT22;8085;53.472;9.794;2023-06-14T00:22:24;15.90;1.00
15969;DHT22;8085;53.472;9.794;2023-06-14T00:24:54;15.90;1.00
15969;DHT22;8085;53.472;9.794;2023-06-14T00:27:22;15.90;1.00
15969;DHT22;8085;53.472;9.794;2023-06-14T00:29:49;15.90;1.00
15969;DHT22;8085;53.472;9.794;2023-06-14T00:32:16;15.90;1.00
15969;DHT22;8085;53.472;9.794;2023-06-14T00:34:43;15.90;1.00
15969;DHT22;8085;53.472;9.794;2023-06-14T00:37:16;15.90;1.00
15969;DHT22;8085;53.472;9.794;2023-06-14T00:39:43;15.90;1.00
15969;DHT22;8085;53.472;9.794;2023-06-14T00:42:11;15.90;1.00
15969;DHT22;8085;53.472;9.794;2023-06-14T00:44:38;15.90;1.00
15969;DHT22;8085;53.472;9.794;2023-06-14T00:47:05;15.90;1.00
15969;DHT22;8085;53.472;9.794;2023-06-14T00:49:32;15.90;1.00
15969;DHT22;8085;53.472;9.794;2023-06-14T00:52:00;15.90;1.00
15969;DHT22;8085;53.472;9.794;2023-06-14T00:54:29;15.80;1.00
15969;DHT22;8085;53.472;9.794;2023-06-14T00:56:56;15.80;1.00
15969;DHT22;8085;53.472;9.794;2023-06-14T00:59:23;15.80;1.00
15969;DHT22;8085;53.472;9.794;2023-06-14T01:01:52;15.80;1.00
15969;DHT22;8085;53.472;9.794;2023-06-14T01:04:20;15.70;1.00
15969;DHT22;8085;53.472;9.794;2023-06-14T01:06:57;15.70;1.00
15969;DHT22;8085;53.472;9.794;2023-06-14T01:09:48;15.60;1.00
15969;DHT22;8085;53.472;9.794;2023-06-14T01:12:27;15.60;1.00
15969;DHT22;8085;53.472;9.794;2023-06-14T01:14:57;15.60;1.00
15969;DHT22;8085;53.472;9.794;2023-06-14T01:17:27;15.50;1.00
15969;DHT22;8085;53.472;9.794;2023-06-14T01:19:57;15.60;1.00
15969;DHT22;8085;53.472;9.794;2023-06-14T01:22:26;15.50;1.00
15969;DHT22;8085;53.472;9.794;2023-06-14T01:24:54;15.50;1.00
15969;DHT22;8085;53.472;9.794;2023-06-14T01:27:23;15.50;1.00
15969;DHT22;8085;53.472;9.794;2023-06-14T01:29:56;15.50;1.00
15969;DHT22;8085;53.472;9.794;2023-06-14T01:32:27;15.50;1.00
15969;DHT22;8085;53.472;9.794;2023-06-14T01:34:58;15.40;1.00
15969;DHT22;8085;53.472;9.794;2023-06-14T01:37:25;15.40;1.00
15969;DHT22;8085;53.472;9.794;2023-06-14T01:39:58;15.40;1.00
15969;DHT22;8085;53.472;9.794;2023-06-14T01:42:30;15.40;1.00
15969;DHT22;8085;53.472;9.794;2023-06-14T01:44:58;15.30;1.00
15969;DHT22;8085;53.472;9.794;2023-06-14T01:47:34;15.30;1.00
15969;DHT22;8085;53.472;9.794;2023-06-14T01:50:11;15.30;1.00
15969;DHT22;8085;53.472;9.794;2023-06-14T01:52:44;15.30;1.00
15969;DHT22;8085;53.472;9.794;2023-06-14T01:55:13;15.20;1.00
15969;DHT22;8085;53.472;9.794;2023-06-14T01:57:40;15.20;1.00
15969;DHT22;8085;53.472;9.794;2023-06-14T02:00:08;15.20;1.00
15969;DHT22;8085;53.472;9.794;2023-06-14T02:02:38;15.20;1.00
15969;DHT22;8085;53.472;9.794;2023-06-14T02:05:05;15.20;1.00
15969;DHT22;8085;53.472;9.794;2023-06-14T02:07:33;15.20;1.00
15969;DHT22;8085;53.472;9.794;2023-06-14T02:10:00;15.10;1.00
15969;DHT22;8085;53.472;9.794;2023-06-14T02:12:29;15.10;1.00
15969;DHT22;8085;53.472;9.794;2023-06-14T02:15:03;15.10;1.00
15969;DHT22;8085;53.472;9.794;2023-06-14T02:17:31;15.00;1.00
15969;DHT22;8085;53.472;9.794;2023-06-14T02:19:58;15.00;1.00
15969;DHT22;8085;53.472;9.794;2023-06-14T02:22:26;15.00;1.00
15969;DHT22;8085;53.472;9.794;2023-06-14T02:24:53;14.90;1.00
15969;DHT22;8085;53.472;9.794;2023-06-14T02:27:21;14.90;1.00
15969;DHT22;8085;53.472;9.794;2023-06-14T02:29:49;14.90;1.00
15969;DHT22;8085;53.472;9.794;2023-06-14T02:32:16;14.90;1.00
15969;DHT22;8085;53.472;9.794;2023-06-14T02:34:43;14.90;1.00
15969;DHT22;8085;53.472;9.794;2023-06-14T02:37:15;14.90;1.00
15969;DHT22;8085;53.472;9.794;2023-06-14T02:39:44;14.90;1.00
15969;DHT22;8085;53.472;9.794;2023-06-14T02:42:11;14.80;1.00
15969;DHT22;8085;53.472;9.794;2023-06-14T02:44:38;14.80;1.00
15969;DHT22;8085;53.472;9.794;2023-06-14T02:47:07;14.80;1.00
15969;DHT22;8085;53.472;9.794;2023-06-14T02:49:38;14.80;1.00
15969;DHT22;8085;53.472;9.794;2023-06-14T02:52:06;14.80;1.00
15969;DHT22;8085;53.472;9.794;2023-06-14T02:54:34;14.70;1.00
15969;DHT22;8085;53.472;9.794;2023-06-14T02:57:02;14.70;1.00
15969;DHT22;8085;53.472;9.794;2023-06-14T02:59:31;14.70;1.00
15969;DHT22;8085;53.472;9.794;2023-06-14T03:01:58;14.70;1.00
15969;DHT22;8085;53.472;9.794;2023-06-14T03:04:29;14.60;1.00
15969;DHT22;8085;53.472;9.794;2023-06-14T03:07:08;14.60;1.00
15969;DHT22;8085;53.472;9.794;2023-06-14T03:09:39;14.60;1.00
15969;DHT22;8085;53.472;9.794;2023-06-14T03:12:10;14.50;1.00
15969;DHT22;8085;53.472;9.794;2023-06-14T03:14:37;14.40;1.00
15969;DHT22;8085;53.472;9.794;2023-06-14T03:17:05;14.40;1.00
15969;DHT22;8085;53.472;9.794;2023-06-14T03:19:37;14.40;1.00
15969;DHT22;8085;53.472;9.794;2023-06-14T03:22:04;14.30;1.00
15969;DHT22;8085;53.472;9.794;2023-06-14T03:24:33;14.40;1.00
15969;DHT22;8085;53.472;9.794;2023-06-14T03:27:04;14.40;1.00
15969;DHT22;8085;53.472;9.794;2023-06-14T03:29:34;14.40;1.00
15969;DHT22;8085;53.472;9.794;2023-06-14T03:32:02;14.40;1.00
15969;DHT22;8085;53.472;9.794;2023-06-14T03:34:34;14.40;1.00
15969;DHT22;8085;53.472;9.794;2023-06-14T03:37:06;14.40;1.00
15969;DHT22;8085;53.472;9.794;2023-06-14T03:39:35;14.40;1.00
15969;DHT22;8085;53.472;9.794;2023-06-14T03:42:03;14.40;1.00
15969;DHT22;8085;53.472;9.794;2023-06-14T03:44:31;14.40;1.00
15969;DHT22;8085;53.472;9.794;2023-06-14T03:46:58;14.40;1.00
15969;DHT22;8085;53.472;9.794;2023-06-14T03:49:30;14.30;2.90
15969;DHT22;8085;53.472;9.794;2023-06-14T03:52:03;14.30;6.30
15969;DHT22;8085;53.472;9.794;2023-06-14T03:54:30;14.30;7.10
15969;DHT22;8085;53.472;9.794;2023-06-14T03:57:01;14.40;10.10
15969;DHT22;8085;53.472;9.794;2023-06-14T03:59:28;14.40;9.20
15969;DHT22;8085;53.472;9.794;2023-06-14T04:01:59;14.40;10.60
15969;DHT22;8085;53.472;9.794;2023-06-14T04:04:29;14.40;12.60
15969;DHT22;8085;53.472;9.794;2023-06-14T04:07:01;14.40;13.60
15969;DHT22;8085;53.472;9.794;2023-06-14T04:09:34;14.50;14.40
15969;DHT22;8085;53.472;9.794;2023-06-14T04:12:08;14.40;13.40
15969;DHT22;8085;53.472;9.794;2023-06-14T04:14:40;14.40;16.00
15969;DHT22;8085;53.472;9.794;2023-06-14T04:17:21;14.50;19.00
15969;DHT22;8085;53.472;9.794;2023-06-14T04:19:51;14.50;23.00
15969;DHT22;8085;53.472;9.794;2023-06-14T04:22:30;14.60;23.60
15969;DHT22;8085;53.472;9.794;2023-06-14T04:25:34;14.70;25.70
15969;DHT22;8085;53.472;9.794;2023-06-14T04:28:27;14.70;27.20
15969;DHT22;8085;53.472;9.794;2023-06-14T04:31:07;14.90;28.00
15969;DHT22;8085;53.472;9.794;2023-06-14T04:34:19;14.90;24.90
15969;DHT22;8085;53.472;9.794;2023-06-14T04:36:54;15.00;23.40
15969;DHT22;8085;53.472;9.794;2023-06-14T04:39:27;15.10;25.80
15969;DHT22;8085;53.472;9.794;2023-06-14T04:42:01;15.10;24.60
15969;DHT22;8085;53.472;9.794;2023-06-14T04:44:35;15.10;26.50
15969;DHT22;8085;53.472;9.794;2023-06-14T04:47:50;15.20;28.80
15969;DHT22;8085;53.472;9.794;2023-06-14T04:51:00;15.20;29.00
15969;DHT22;8085;53.472;9.794;2023-06-14T04:53:58;15.40;28.10
15969;DHT22;8085;53.472;9.794;2023-06-14T04:56:37;15.50;22.20
15969;DHT22;8085;53.472;9.794;2023-06-14T04:59:06;15.60;18.60
15969;DHT22;8085;53.472;9.794;2023-06-14T05:01:34;15.70;17.70
15969;DHT22;8085;53.472;9.794;2023-06-14T05:04:02;15.90;15.00
15969;DHT22;8085;53.472;9.794;2023-06-14T05:06:30;16.00;6.30
15969;DHT22;8085;53.472;9.794;2023-06-14T05:08:57;16.10;1.00
15969;DHT22;8085;53.472;9.794;2023-06-14T05:11:25;16.20;1.00
15969;DHT22;8085;53.472;9.794;2023-06-14T05:14:03;16.20;1.00
15969;DHT22;8085;53.472;9.794;2023-06-14T05:16:31;16.40;1.00
15969;DHT22;8085;53.472;9.794;2023-06-14T05:19:03;16.50;1.00
15969;DHT22;8085;53.472;9.794;2023-06-14T05:21:36;16.60;1.00
15969;DHT22;8085;53.472;9.794;2023-06-14T05:24:15;16.70;1.00
15969;DHT22;8085;53.472;9.794;2023-06-14T05:26:44;16.80;1.00
15969;DHT22;8085;53.472;9.794;2023-06-14T05:29:12;16.90;1.00
15969;DHT22;8085;53.472;9.794;2023-06-14T05:31:39;17.00;1.00
15969;DHT22;8085;53.472;9.794;2023-06-14T05:34:06;17.10;1.00
15969;DHT22;8085;53.472;9.794;2023-06-14T05:36:33;17.30;1.00
15969;DHT22;8085;53.472;9.794;2023-06-14T05:39:02;17.40;1.00
15969;DHT22;8085;53.472;9.794;2023-06-14T05:41:31;17.40;1.00
15969;DHT22;8085;53.472;9.794;2023-06-14T05:44:04;17.50;1.00
15969;DHT22;8085;53.472;9.794;2023-06-14T05:46:34;17.60;1.00
15969;DHT22;8085;53.472;9.794;2023-06-14T05:49:01;17.70;1.00
15969;DHT22;8085;53.472;9.794;2023-06-14T05:51:28;17.80;1.00
15969;DHT22;8085;53.472;9.794;2023-06-14T05:54:00;17.90;1.00
15969;DHT22;8085;53.472;9.794;2023-06-14T05:56:28;18.00;1.00
15969;DHT22;8085;53.472;9.794;2023-06-14T05:58:58;18.20;1.00
15969;DHT22;8085;53.472;9.794;2023-06-14T06:01:31;18.00;1.00
15969;DHT22;8085;53.472;9.794;2023-06-14T06:05:00;18.30;1.00
15969;DHT22;8085;53.472;9.794;2023-06-14T06:08:06;18.50;1.00
15969;DHT22;8085;53.472;9.794;2023-06-14T06:11:12;18.70;1.00
15969;DHT22;8085;53.472;9.794;2023-06-14T06:13:57;18.90;1.00
15969;DHT22;8085;53.472;9.794;2023-06-14T06:16:47;19.10;1.00
15969;DHT22;8085;53.472;9.794;2023-06-14T06:20:06;19.10;1.00
15969;DHT22;8085;53.472;9.794;2023-06-14T06:22:43;19.20;1.00
15969;DHT22;8085;53.472;9.794;2023-06-14T06:25:24;19.40;1.00
15969;DHT22;8085;53.472;9.794;2023-06-14T06:28:27;19.50;1.00
15969;DHT22;8085;53.472;9.794;2023-06-14T06:31:19;19.60;1.00
15969;DHT22;8085;53.472;9.794;2023-06-14T06:34:49;19.70;1.00
15969;DHT22;8085;53.472;9.794;2023-06-14T06:41:27;19.90;1.00
15969;DHT22;8085;53.472;9.794;2023-06-14T06:44:34;20.00;99.90
15969;DHT22;8085;53.472;9.794;2023-06-14T06:48:06;19.90;99.90
15969;DHT22;8085;53.472;9.794;2023-06-14T06:51:53;20.00;99.90
15969;DHT22;8085;53.472;9.794;2023-06-14T06:54:24;20.20;99.90
15969;DHT22;8085;53.472;9.794;2023-06-14T07:04:22;20.20;99.90
15969;DHT22;8085;53.472;9.794;2023-06-14T07:07:41;20.40;99.90
15969;DHT22;8085;53.472;9.794;2023-06-14T07:10:11;20.40;99.90
15969;DHT22;8085;53.472;9.794;2023-06-14T07:13:04;20.40;1.00
15969;DHT22;8085;53.472;9.794;2023-06-14T07:15:32;20.30;1.00
15969;DHT22;8085;53.472;9.794;2023-06-14T07:18:44;20.40;99.90
15969;DHT22;8085;53.472;9.794;2023-06-14T07:21:33;20.60;99.90
15969;DHT22;8085;53.472;9.794;2023-06-14T07:24:31;20.80;1.00
15969;DHT22;8085;53.472;9.794;2023-06-14T07:27:17;21.00;1.00
15969;DHT22;8085;53.472;9.794;2023-06-14T07:29:47;21.10;1.00
15969;DHT22;8085;53.472;9.794;2023-06-14T07:32:59;21.10;99.90
15969;DHT22;8085;53.472;9.794;2023-06-14T07:35:41;21.00;1.00
15969;DHT22;8085;53.472;9.794;2023-06-14T07:38:14;21.20;99.90
15969;DHT22;8085;53.472;9.794;2023-06-14T07:40:57;21.20;1.00
15969;DHT22;8085;53.472;9.794;2023-06-14T07:43:31;21.20;1.00
15969;DHT22;8085;53.472;9.794;2023-06-14T07:46:07;21.10;1.00
15969;DHT22;8085;53.472;9.794;2023-06-14T07:48:35;21.20;1.00
15969;DHT22;8085;53.472;9.794;2023-06-14T07:51:03;21.30;1.00
15969;DHT22;8085;53.472;9.794;2023-06-14T07:53:36;21.40;1.00
15969;DHT22;8085;53.472;9.794;2023-06-14T07:56:05;21.40;1.00
15969;DHT22;8085;53.472;9.794;2023-06-14T07:58:34;21.40;37.80
15969;DHT22;8085;53.472;9.794;2023-06-14T09:27:25;24.90;94.80
15969;DHT22;8085;53.472;9.794;2023-06-14T09:29:53;24.50;99.90
15969;DHT22;8085;53.472;9.794;2023-06-14T09:32:20;24.60;99.90
15969;DHT22;8085;53.472;9.794;2023-06-14T09:34:48;24.30;99.90
15969;DHT22;8085;53.472;9.794;2023-06-14T09:37:27;24.30;99.90
15969;DHT22;8085;53.472;9.794;2023-06-14T09:39:56;24.50;99.90
15969;DHT22;8085;53.472;9.794;2023-06-14T09:42:25;24.80;99.90
15969;DHT22;8085;53.472;9.794;2023-06-14T09:44:55;25.20;99.90
15969;DHT22;8085;53.472;9.794;2023-06-14T09:47:23;25.10;99.90
15969;DHT22;8085;53.472;9.794;2023-06-14T09:49:53;25.40;99.90
15969;DHT22;8085;53.472;9.794;2023-06-14T09:52:24;25.40;35.50
15969;DHT22;8085;53.472;9.794;2023-06-14T09:54:52;25.30;1.00
15969;DHT22;8085;53.472;9.794;2023-06-14T09:57:22;25.60;1.00
15969;DHT22;8085;53.472;9.794;2023-06-14T09:59:57;25.70;1.00
15969;DHT22;8085;53.472;9.794;2023-06-14T10:02:28;26.20;1.00
15969;DHT22;8085;53.472;9.794;2023-06-14T10:05:04;26.20;1.00
15969;DHT22;8085;53.472;9.794;2023-06-14T10:07:35;25.90;1.00
15969;DHT22;8085;53.472;9.794;2023-06-14T10:10:06;24.90;1.00
15969;DHT22;8085;53.472;9.794;2023-06-14T10:12:33;24.20;1.00
15969;DHT22;8085;53.472;9.794;2023-06-14T10:15:03;23.50;99.90
15969;DHT22;8085;53.472;9.794;2023-06-14T10:17:40;23.20;99.90
15969;DHT22;8085;53.472;9.794;2023-06-14T10:20:21;23.40;99.90
15969;DHT22;8085;53.472;9.794;2023-06-14T10:22:51;23.70;99.90
15969;DHT22;8085;53.472;9.794;2023-06-14T10:25:30;23.90;99.90
15969;DHT22;8085;53.472;9.794;2023-06-14T10:28:14;23.90;99.90
15969;DHT22;8085;53.472;9.794;2023-06-14T10:31:05;24.00;99.90
15969;DHT22;8085;53.472;9.794;2023-06-14T10:33:33;24.40;99.90
15969;DHT22;8085;53.472;9.794;2023-06-14T10:36:23;25.00;82.00
15969;DHT22;8085;53.472;9.794;2023-06-14T10:38:57;25.30;38.90
15969;DHT22;8085;53.472;9.794;2023-06-14T10:41:26;24.90;47.50
15969;DHT22;8085;53.472;9.794;2023-06-14T10:46:54;24.70;12.70
15969;DHT22;8085;53.472;9.794;2023-06-14T10:49:37;24.60;99.90
15969;DHT22;8085;53.472;9.794;2023-06-14T10:52:09;24.80;84.70
15969;DHT22;8085;53.472;9.794;2023-06-14T10:54:59;24.70;9.80
15969;DHT22;8085;53.472;9.794;2023-06-14T10:57:26;24.30;57.80
15969;DHT22;8085;53.472;9.794;2023-06-14T10:59:53;24.00;99.90
15969;DHT22;8085;53.472;9.794;2023-06-14T11:02:46;23.80;99.90
15969;DHT22;8085;53.472;9.794;2023-06-14T11:05:23;24.00;99.90
15969;DHT22;8085;53.472;9.794;2023-06-14T11:10:50;24.40;99.90
15969;DHT22;8085;53.472;9.794;2023-06-14T11:13:23;25.10;22.00
15969;DHT22;8085;53.472;9.794;2023-06-14T11:15:53;25.90;1.00
15969;DHT22;8085;53.472;9.794;2023-06-14T11:18:25;25.60;1.00
15969;DHT22;8085;53.472;9.794;2023-06-14T11:20:53;25.80;1.00
15969;DHT22;8085;53.472;9.794;2023-06-14T11:23:21;26.60;1.00
15969;DHT22;8085;53.472;9.794;2023-06-14T11:25:50;27.20;1.00
15969;DHT22;8085;53.472;9.794;2023-06-14T11:28:17;27.30;1.00
15969;DHT22;8085;53.472;9.794;2023-06-14T11:30:47;27.50;1.00
15969;DHT22;8085;53.472;9.794;2023-06-14T11:33:18;27.10;1.00
15969;DHT22;8085;53.472;9.794;2023-06-14T11:35:47;26.20;1.00
15969;DHT22;8085;53.472;9.794;2023-06-14T11:38:14;25.50;1.00
15969;DHT22;8085;53.472;9.794;2023-06-14T11:40:41;25.50;1.00
15969;DHT22;8085;53.472;9.794;2023-06-14T11:43:10;25.50;1.00
15969;DHT22;8085;53.472;9.794;2023-06-14T11:45:48;25.60;1.00
15969;DHT22;8085;53.472;9.794;2023-06-14T11:48:14;25.10;1.00
15969;DHT22;8085;53.472;9.794;2023-06-14T11:50:41;24.80;1.00
15969;DHT22;8085;53.472;9.794;2023-06-14T11:53:10;24.50;1.00
15969;DHT22;8085;53.472;9.794;2023-06-14T11:55:37;24.30;1.00
15969;DHT22;8085;53.472;9.794;2023-06-14T11:58:04;24.10;1.00
15969;DHT22;8085;53.472;9.794;2023-06-14T12:00:31;24.00;1.00
15969;DHT22;8085;53.472;9.794;2023-06-14T12:02:58;23.80;1.00
15969;DHT22;8085;53.472;9.794;2023-06-14T12:05:26;23.90;1.00
15969;DHT22;8085;53.472;9.794;2023-06-14T12:07:59;23.90;1.00
15969;DHT22;8085;53.472;9.794;2023-06-14T12:10:28;24.30;1.00
15969;DHT22;8085;53.472;9.794;2023-06-14T12:12:59;25.00;1.00
15969;DHT22;8085;53.472;9.794;2023-06-14T12:15:28;25.60;1.00
15969;DHT22;8085;53.472;9.794;2023-06-14T12:17:55;26.00;1.00
15969;DHT22;8085;53.472;9.794;2023-06-14T12:20:22;26.70;1.00
15969;DHT22;8085;53.472;9.794;2023-06-14T12:22:53;26.80;1.00
15969;DHT22;8085;53.472;9.794;2023-06-14T12:25:28;27.30;1.00
15969;DHT22;8085;53.472;9.794;2023-06-14T12:27:57;27.70;1.00
15969;DHT22;8085;53.472;9.794;2023-06-14T12:30:24;27.30;1.00
15969;DHT22;8085;53.472;9.794;2023-06-14T12:32:51;27.10;1.00
15969;DHT22;8085;53.472;9.794;2023-06-14T12:35:18;27.50;1.00
15969;DHT22;8085;53.472;9.794;2023-06-14T12:37:45;27.80;99.90
15969;DHT22;8085;53.472;9.794;2023-06-14T12:40:12;27.30;99.90
15969;DHT22;8085;53.472;9.794;2023-06-14T12:42:41;27.20;1.00
15969;DHT22;8085;53.472;9.794;2023-06-14T12:45:09;27.30;1.00
15969;DHT22;8085;53.472;9.794;2023-06-14T12:47:36;26.70;1.00
15969;DHT22;8085;53.472;9.794;2023-06-14T12:50:04;26.10;1.00
15969;DHT22;8085;53.472;9.794;2023-06-14T12:52:34;25.80;1.00
15969;DHT22;8085;53.472;9.794;2023-06-14T12:55:02;25.60;1.00
15969;DHT22;8085;53.472;9.794;2023-06-14T12:57:29;25.50;1.00
15969;DHT22;8085;53.472;9.794;2023-06-14T13:00:00;25.60;1.00
15969;DHT22;8085;53.472;9.794;2023-06-14T13:02:27;25.50;1.00
15969;DHT22;8085;53.472;9.794;2023-06-14T13:04:54;25.30;1.00
15969;DHT22;8085;53.472;9.794;2023-06-14T13:07:22;25.20;1.00
15969;DHT22;8085;53.472;9.794;2023-06-14T13:09:49;24.90;1.00
15969;DHT22;8085;53.472;9.794;2023-06-14T13:12:16;24.40;1.00
15969;DHT22;8085;53.472;9.794;2023-06-14T13:14:43;24.20;1.00
15969;DHT22;8085;53.472;9.794;2023-06-14T13:17:13;24.20;1.00
15969;DHT22;8085;53.472;9.794;2023-06-14T13:19:41;24.50;1.00
15969;DHT22;8085;53.472;9.794;2023-06-14T13:22:08;24.70;1.00
15969;DHT22;8085;53.472;9.794;2023-06-14T13:24:36;25.20;1.00
15969;DHT22;8085;53.472;9.794;2023-06-14T13:27:04;25.80;1.00
15969;DHT22;8085;53.472;9.794;2023-06-14T13:29:31;25.80;1.00
15969;DHT22;8085;53.472;9.794;2023-06-14T13:32:02;26.00;1.00
15969;DHT22;8085;53.472;9.794;2023-06-14T13:34:31;26.40;1.00
15969;DHT22;8085;53.472;9.794;2023-06-14T13:36:58;26.50;1.00
15969;DHT22;8085;53.472;9.794;2023-06-14T13:39:25;26.20;1.00
15969;DHT22;8085;53.472;9.794;2023-06-14T13:41:55;25.80;1.00
15969;DHT22;8085;53.472;9.794;2023-06-14T13:44:22;25.50;1.00
15969;DHT22;8085;53.472;9.794;2023-06-14T13:46:50;25.20;1.00
15969;DHT22;8085;53.472;9.794;2023-06-14T13:49:17;24.90;1.00
15969;DHT22;8085;53.472;9.794;2023-06-14T13:51:45;24.60;1.00
15969;DHT22;8085;53.472;9.794;2023-06-14T13:54:13;24.60;1.00
15969;DHT22;8085;53.472;9.794;2023-06-14T13:56:43;24.50;1.00
15969;DHT22;8085;53.472;9.794;2023-06-14T13:59:10;24.50;1.00
15969;DHT22;8085;53.472;9.794;2023-06-14T14:01:37;24.50;1.00
15969;DHT22;8085;53.472;9.794;2023-06-14T14:04:06;24.60;1.00
15969;DHT22;8085;53.472;9.794;2023-06-14T14:06:34;25.00;1.00
15969;DHT22;8085;53.472;9.794;2023-06-14T14:09:03;25.50;1.00
15969;DHT22;8085;53.472;9.794;2023-06-14T14:11:30;25.90;1.00
15969;DHT22;8085;53.472;9.794;2023-06-14T14:13:57;26.00;1.00
15969;DHT22;8085;53.472;9.794;2023-06-14T14:16:24;25.60;1.00
15969;DHT22;8085;53.472;9.794;2023-06-14T14:18:51;25.20;1.00
15969;DHT22;8085;53.472;9.794;2023-06-14T14:21:18;25.00;1.00
15969;DHT22;8085;53.472;9.794;2023-06-14T14:23:45;24.70;1.00
15969;DHT22;8085;53.472;9.794;2023-06-14T14:26:13;24.50;1.00
15969;DHT22;8085;53.472;9.794;2023-06-14T14:28:41;24.60;1.00
15969;DHT22;8085;53.472;9.794;2023-06-14T14:31:08;25.10;1.00
15969;DHT22;8085;53.472;9.794;2023-06-14T14:33:35;25.70;1.00
15969;DHT22;8085;53.472;9.794;2023-06-14T14:36:02;26.00;1.00
15969;DHT22;8085;53.472;9.794;2023-06-14T14:38:30;26.40;1.00
15969;DHT22;8085;53.472;9.794;2023-06-14T14:40:57;26.70;1.00
15969;DHT22;8085;53.472;9.794;2023-06-14T14:43:25;26.90;1.00
15969;DHT22;8085;53.472;9.794;2023-06-14T14:45:52;27.20;1.00
15969;DHT22;8085;53.472;9.794;2023-06-14T14:48:19;27.40;1.00
15969;DHT22;8085;53.472;9.794;2023-06-14T14:50:47;27.10;1.00
15969;DHT22;8085;53.472;9.794;2023-06-14T14:53:14;26.40;1.00
15969;DHT22;8085;53.472;9.794;2023-06-14T14:55:42;25.80;1.00
15969;DHT22;8085;53.472;9.794;2023-06-14T14:58:09;25.40;1.00
15969;DHT22;8085;53.472;9.794;2023-06-14T15:00:37;25.10;1.00
15969;DHT22;8085;53.472;9.794;2023-06-14T15:03:04;24.90;1.00
15969;DHT22;8085;53.472;9.794;2023-06-14T15:05:31;24.80;1.00
15969;DHT22;8085;53.472;9.794;2023-06-14T15:07:58;24.80;1.00
15969;DHT22;8085;53.472;9.794;2023-06-14T15:10:25;25.10;1.00
15969;DHT22;8085;53.472;9.794;2023-06-14T15:12:52;25.60;1.00
15969;DHT22;8085;53.472;9.794;2023-06-14T15:15:19;25.90;1.00
15969;DHT22;8085;53.472;9.794;2023-06-14T15:17:47;25.70;1.00
15969;DHT22;8085;53.472;9.794;2023-06-14T15:20:14;25.60;1.00
15969;DHT22;8085;53.472;9.794;2023-06-14T15:22:41;25.40;1.00
15969;DHT22;8085;53.472;9.794;2023-06-14T15:25:09;25.20;1.00
15969;DHT22;8085;53.472;9.794;2023-06-14T15:27:36;25.10;1.00
15969;DHT22;8085;53.472;9.794;2023-06-14T15:30:04;24.90;1.00
15969;DHT22;8085;53.472;9.794;2023-06-14T15:32:34;24.80;1.00
15969;DHT22;8085;53.472;9.794;2023-06-14T15:35:05;24.50;1.00
15969;DHT22;8085;53.472;9.794;2023-06-14T15:37:32;24.40;1.00
15969;DHT22;8085;53.472;9.794;2023-06-14T15:39:59;24.50;1.00
15969;DHT22;8085;53.472;9.794;2023-06-14T15:42:26;24.80;1.00
15969;DHT22;8085;53.472;9.794;2023-06-14T15:44:53;25.00;1.00
15969;DHT22;8085;53.472;9.794;2023-06-14T15:47:20;25.20;1.00
15969;DHT22;8085;53.472;9.794;2023-06-14T15:49:46;25.30;1.00
15969;DHT22;8085;53.472;9.794;2023-06-14T15:52:15;25.30;1.00
15969;DHT22;8085;53.472;9.794;2023-06-14T15:54:42;25.30;1.00
15969;DHT22;8085;53.472;9.794;2023-06-14T15:57:08;25.50;1.00
15969;DHT22;8085;53.472;9.794;2023-06-14T15:59:36;25.50;1.00
15969;DHT22;8085;53.472;9.794;2023-06-14T16:02:04;25.60;1.00
15969;DHT22;8085;53.472;9.794;2023-06-14T16:04:31;25.60;1.00
15969;DHT22;8085;53.472;9.794;2023-06-14T16:07:01;25.70;1.00
15969;DHT22;8085;53.472;9.794;2023-06-14T16:09:29;25.50;1.00
15969;DHT22;8085;53.472;9.794;2023-06-14T16:11:56;25.50;1.00
15969;DHT22;8085;53.472;9.794;2023-06-14T16:14:24;25.60;1.00
15969;DHT22;8085;53.472;9.794;2023-06-14T16:16:50;25.60;1.00
15969;DHT22;8085;53.472;9.794;2023-06-14T16:19:17;25.60;1.00
15969;DHT22;8085;53.472;9.794;2023-06-14T16:21:44;25.50;1.00
15969;DHT22;8085;53.472;9.794;2023-06-14T16:24:11;25.50;1.00
15969;DHT22;8085;53.472;9.794;2023-06-14T16:26:41;25.60;1.00
15969;DHT22;8085;53.472;9.794;2023-06-14T16:29:09;25.50;1.00
15969;DHT22;8085;53.472;9.794;2023-06-14T16:31:35;25.40;1.00
15969;DHT22;8085;53.472;9.794;2023-06-14T16:34:02;25.30;1.00
15969;DHT22;8085;53.472;9.794;2023-06-14T16:36:33;25.30;1.00
15969;DHT22;8085;53.472;9.794;2023-06-14T16:39:00;25.20;1.00
15969;DHT22;8085;53.472;9.794;2023-06-14T16:41:27;25.00;1.00
15969;DHT22;8085;53.472;9.794;2023-06-14T16:43:55;24.70;1.00
15969;DHT22;8085;53.472;9.794;2023-06-14T16:46:28;24.60;1.00
15969;DHT22;8085;53.472;9.794;2023-06-14T16:48:58;24.50;1.00
15969;DHT22;8085;53.472;9.794;2023-06-14T16:51:26;24.60;1.00
15969;DHT22;8085;53.472;9.794;2023-06-14T16:53:53;24.70;1.00
15969;DHT22;8085;53.472;9.794;2023-06-14T16:56:21;24.60;1.00
15969;DHT22;8085;53.472;9.794;2023-06-14T16:58:51;24.60;1.00
15969;DHT22;8085;53.472;9.794;2023-06-14T17:01:20;24.50;1.00
15969;DHT22;8085;53.472;9.794;2023-06-14T17:03:46;24.40;1.00
15969;DHT22;8085;53.472;9.794;2023-06-14T17:06:14;24.60;1.00
15969;DHT22;8085;53.472;9.794;2023-06-14T17:08:41;24.50;1.00
15969;DHT22;8085;53.472;9.794;2023-06-14T17:11:07;24.50;1.00
15969;DHT22;8085;53.472;9.794;2023-06-14T17:13:34;24.40;1.00
15969;DHT22;8085;53.472;9.794;2023-06-14T17:16:02;24.30;1.00
15969;DHT22;8085;53.472;9.794;2023-06-14T17:18:33;24.30;1.00
15969;DHT22;8085;53.472;9.794;2023-06-14T17:21:00;24.30;1.00
15969;DHT22;8085;53.472;9.794;2023-06-14T17:23:27;24.40;1.00
15969;DHT22;8085;53.472;9.794;2023-06-14T17:25:54;24.20;1.00
15969;DHT22;8085;53.472;9.794;2023-06-14T17:28:21;24.30;1.00
15969;DHT22;8085;53.472;9.794;2023-06-14T17:30:48;24.20;1.00
15969;DHT22;8085;53.472;9.794;2023-06-14T17:33:15;24.10;1.00
15969;DHT22;8085;53.472;9.794;2023-06-14T17:35:44;24.00;1.00
15969;DHT22;8085;53.472;9.794;2023-06-14T17:38:11;23.80;1.00
15969;DHT22;8085;53.472;9.794;2023-06-14T17:40:38;23.70;1.00
15969;DHT22;8085;53.472;9.794;2023-06-14T17:43:05;23.70;1.00
15969;DHT22;8085;53.472;9.794;2023-06-14T17:45:33;23.70;1.00
15969;DHT22;8085;53.472;9.794;2023-06-14T17:48:02;23.60;1.00
15969;DHT22;8085;53.472;9.794;2023-06-14T17:50:29;23.50;1.00
15969;DHT22;8085;53.472;9.794;2023-06-14T17:53:00;23.30;1.00
15969;DHT22;8085;53.472;9.794;2023-06-14T17:55:29;23.30;1.00
15969;DHT22;8085;53.472;9.794;2023-06-14T17:57:56;23.30;1.00
15969;DHT22;8085;53.472;9.794;2023-06-14T18:00:23;23.20;1.00
15969;DHT22;8085;53.472;9.794;2023-06-14T18:02:50;23.20;1.00
15969;DHT22;8085;53.472;9.794;2023-06-14T18:05:17;23.10;1.00
15969;DHT22;8085;53.472;9.794;2023-06-14T18:07:44;23.00;1.00
15969;DHT22;8085;53.472;9.794;2023-06-14T18:10:12;22.90;1.00
15969;DHT22;8085;53.472;9.794;2023-06-14T18:12:42;22.80;1.00